sensor_id;sensor_type;location;lat;lon;timestamp;P1;durP1;ratioP1;P2;durP2;ratioP2
83694;SDS011;73676;43.582;22.268;2024-03-23T00:55:42;53.33;;;31.10;;
83694;SDS011;73676;43.582;22.268;2024-03-23T00:58:08;41.85;;;23.00;;
83694;SDS011;73676;43.582;22.268;2024-03-23T01:00:33;43.05;;;24.00;;
83694;SDS011;73676;43.582;22.268;2024-03-23T01:02:58;45.17;;;25.63;;
83694;SDS011;73676;43.582;22.268;2024-03-23T01:05:24;43.63;;;27.15;;
83694;SDS011;73676;43.582;22.268;2024-03-23T01:07:49;46.35;;;26.95;;
83694;SDS011;73676;43.582;22.268;2024-03-23T01:10:15;55.92;;;31.48;;
83694;SDS011;73676;43.582;22.268;2024-03-23T01:12:40;49.08;;;28.63;;
83694;SDS011;73676;43.582;22.268;2024-03-23T01:15:05;227.07;;;71.47;;
83694;SDS011;73676;43.582;22.268;2024-03-23T01:17:31;42.88;;;25.05;;
83694;SDS011;73676;43.582;22.268;2024-03-23T01:19:57;44.42;;;26.42;;
83694;SDS011;73676;43.582;22.268;2024-03-23T01:22:22;43.47;;;25.83;;
83694;SDS011;73676;43.582;22.268;2024-03-23T01:24:47;72.88;;;36.60;;
83694;SDS011;73676;43.582;22.268;2024-03-23T01:27:12;105.03;;;48.15;;
83694;SDS011;73676;43.582;22.268;2024-03-23T01:29:38;93.85;;;40.60;;
83694;SDS011;73676;43.582;22.268;2024-03-23T01:32:04;98.18;;;48.13;;
83694;SDS011;73676;43.582;22.268;2024-03-23T01:34:30;64.25;;;33.35;;
83694;SDS011;73676;43.582;22.268;2024-03-23T01:36:56;73.63;;;37.35;;
83694;SDS011;73676;43.582;22.268;2024-03-23T01:39:22;54.58;;;30.02;;
83694;SDS011;73676;43.582;22.268;2024-03-23T01:41:47;49.70;;;29.33;;
83694;SDS011;73676;43.582;22.268;2024-03-23T01:44:12;43.50;;;26.55;;
83694;SDS011;73676;43.582;22.268;2024-03-23T01:46:38;42.45;;;26.48;;
83694;SDS011;73676;43.582;22.268;2024-03-23T01:49:04;43.33;;;24.02;;
83694;SDS011;73676;43.582;22.268;2024-03-23T01:51:29;33.10;;;21.00;;
83694;SDS011;73676;43.582;22.268;2024-03-23T01:53:55;36.30;;;19.83;;
83694;SDS011;73676;43.582;22.268;2024-03-23T01:56:21;33.72;;;19.55;;
83694;SDS011;73676;43.582;22.268;2024-03-23T01:58:46;34.88;;;19.83;;
83694;SDS011;73676;43.582;22.268;2024-03-23T02:01:12;37.72;;;21.27;;
83694;SDS011;73676;43.582;22.268;2024-03-23T02:03:38;38.63;;;22.05;;
83694;SDS011;73676;43.582;22.268;2024-03-23T02:06:03;50.92;;;25.73;;
83694;SDS011;73676;43.582;22.268;2024-03-23T02:08:29;43.28;;;29.38;;
83694;SDS011;73676;43.582;22.268;2024-03-23T02:10:55;43.88;;;30.70;;
83694;SDS011;73676;43.582;22.268;2024-03-23T02:13:20;43.28;;;30.00;;
83694;SDS011;73676;43.582;22.268;2024-03-23T02:15:46;34.25;;;20.27;;
83694;SDS011;73676;43.582;22.268;2024-03-23T02:18:11;32.15;;;19.50;;
83694;SDS011;73676;43.582;22.268;2024-03-23T02:20:37;36.38;;;21.55;;
83694;SDS011;73676;43.582;22.268;2024-03-23T02:23:03;35.10;;;20.60;;
83694;SDS011;73676;43.582;22.268;2024-03-23T02:25:28;31.27;;;19.60;;
83694;SDS011;73676;43.582;22.268;2024-03-23T02:27:53;39.55;;;22.65;;
83694;SDS011;73676;43.582;22.268;2024-03-23T02:30:20;32.33;;;19.55;;
83694;SDS011;73676;43.582;22.268;2024-03-23T02:32:45;49.13;;;23.40;;
83694;SDS011;73676;43.582;22.268;2024-03-23T02:35:11;32.15;;;19.17;;
83694;SDS011;73676;43.582;22.268;2024-03-23T02:37:37;30.17;;;17.85;;
83694;SDS011;73676;43.582;22.268;2024-03-23T02:40:03;31.55;;;18.58;;
83694;SDS011;73676;43.582;22.268;2024-03-23T02:42:28;33.70;;;18.85;;
83694;SDS011;73676;43.582;22.268;2024-03-23T02:44:54;48.38;;;27.17;;
83694;SDS011;73676;43.582;22.268;2024-03-23T02:47:19;39.75;;;22.60;;
83694;SDS011;73676;43.582;22.268;2024-03-23T02:49:44;50.47;;;29.60;;
83694;SDS011;73676;43.582;22.268;2024-03-23T02:52:10;34.65;;;20.25;;
83694;SDS011;73676;43.582;22.268;2024-03-23T02:54:36;36.58;;;21.05;;
83694;SDS011;73676;43.582;22.268;2024-03-23T02:57:01;31.23;;;16.08;;
83694;SDS011;73676;43.582;22.268;2024-03-23T02:59:27;29.17;;;18.30;;
83694;SDS011;73676;43.582;22.268;2024-03-23T03:01:52;34.97;;;21.15;;
83694;SDS011;73676;43.582;22.268;2024-03-23T03:04:18;32.38;;;18.17;;
83694;SDS011;73676;43.582;22.268;2024-03-23T03:06:46;29.13;;;18.42;;
83694;SDS011;73676;43.582;22.268;2024-03-23T03:09:11;29.58;;;17.10;;
83694;SDS011;73676;43.582;22.268;2024-03-23T03:11:36;30.42;;;18.58;;
83694;SDS011;73676;43.582;22.268;2024-03-23T03:14:02;30.75;;;17.90;;
83694;SDS011;73676;43.582;22.268;2024-03-23T03:16:27;31.85;;;18.75;;
83694;SDS011;73676;43.582;22.268;2024-03-23T03:18:52;31.33;;;18.08;;
83694;SDS011;73676;43.582;22.268;2024-03-23T03:21:18;27.90;;;16.10;;
83694;SDS011;73676;43.582;22.268;2024-03-23T03:23:44;28.88;;;16.67;;
83694;SDS011;73676;43.582;22.268;2024-03-23T03:26:09;28.48;;;17.42;;
83694;SDS011;73676;43.582;22.268;2024-03-23T03:28:35;27.42;;;16.80;;
83694;SDS011;73676;43.582;22.268;2024-03-23T03:31:00;27.52;;;16.90;;
83694;SDS011;73676;43.582;22.268;2024-03-23T03:33:26;27.23;;;16.55;;
83694;SDS011;73676;43.582;22.268;2024-03-23T03:35:51;24.70;;;15.10;;
83694;SDS011;73676;43.582;22.268;2024-03-23T03:38:18;24.13;;;14.48;;
83694;SDS011;73676;43.582;22.268;2024-03-23T03:40:43;27.15;;;16.70;;
83694;SDS011;73676;43.582;22.268;2024-03-23T03:43:08;28.13;;;16.65;;
83694;SDS011;73676;43.582;22.268;2024-03-23T03:45:33;26.42;;;15.38;;
83694;SDS011;73676;43.582;22.268;2024-03-23T03:47:59;27.55;;;16.33;;
83694;SDS011;73676;43.582;22.268;2024-03-23T03:50:24;28.60;;;16.27;;
83694;SDS011;73676;43.582;22.268;2024-03-23T03:52:50;24.30;;;13.88;;
83694;SDS011;73676;43.582;22.268;2024-03-23T03:55:15;24.30;;;15.05;;
83694;SDS011;73676;43.582;22.268;2024-03-23T03:57:40;27.13;;;15.98;;
83694;SDS011;73676;43.582;22.268;2024-03-23T04:00:06;29.80;;;18.15;;
83694;SDS011;73676;43.582;22.268;2024-03-23T04:02:32;30.45;;;17.65;;
83694;SDS011;73676;43.582;22.268;2024-03-23T04:04:57;26.50;;;16.77;;
83694;SDS011;73676;43.582;22.268;2024-03-23T04:07:22;26.60;;;16.17;;
83694;SDS011;73676;43.582;22.268;2024-03-23T04:09:48;31.40;;;18.10;;
83694;SDS011;73676;43.582;22.268;2024-03-23T04:12:14;33.17;;;18.75;;
83694;SDS011;73676;43.582;22.268;2024-03-23T04:14:40;34.60;;;18.58;;
83694;SDS011;73676;43.582;22.268;2024-03-23T04:17:05;34.58;;;19.48;;
83694;SDS011;73676;43.582;22.268;2024-03-23T04:19:30;27.33;;;17.08;;
83694;SDS011;73676;43.582;22.268;2024-03-23T04:21:56;31.92;;;16.48;;
83694;SDS011;73676;43.582;22.268;2024-03-23T04:24:21;31.85;;;18.98;;
83694;SDS011;73676;43.582;22.268;2024-03-23T04:26:47;33.30;;;18.98;;
83694;SDS011;73676;43.582;22.268;2024-03-23T04:29:12;28.90;;;17.13;;
83694;SDS011;73676;43.582;22.268;2024-03-23T04:31:38;25.38;;;14.70;;
83694;SDS011;73676;43.582;22.268;2024-03-23T04:34:03;25.85;;;16.13;;
83694;SDS011;73676;43.582;22.268;2024-03-23T04:36:29;23.85;;;14.48;;
83694;SDS011;73676;43.582;22.268;2024-03-23T04:38:54;28.83;;;16.30;;
83694;SDS011;73676;43.582;22.268;2024-03-23T04:41:19;28.98;;;15.57;;
83694;SDS011;73676;43.582;22.268;2024-03-23T04:43:45;29.17;;;15.45;;
83694;SDS011;73676;43.582;22.268;2024-03-23T04:46:10;25.33;;;14.60;;
83694;SDS011;73676;43.582;22.268;2024-03-23T04:48:35;27.48;;;16.80;;
83694;SDS011;73676;43.582;22.268;2024-03-23T04:51:01;30.30;;;16.77;;
83694;SDS011;73676;43.582;22.268;2024-03-23T04:53:27;26.35;;;16.10;;
83694;SDS011;73676;43.582;22.268;2024-03-23T04:55:55;31.08;;;18.83;;
83694;SDS011;73676;43.582;22.268;2024-03-23T04:58:21;30.30;;;17.27;;
83694;SDS011;73676;43.582;22.268;2024-03-23T05:00:46;33.17;;;17.13;;
83694;SDS011;73676;43.582;22.268;2024-03-23T05:03:12;30.80;;;17.80;;
83694;SDS011;73676;43.582;22.268;2024-03-23T05:05:38;30.08;;;17.25;;
83694;SDS011;73676;43.582;22.268;2024-03-23T05:08:04;30.45;;;15.55;;
83694;SDS011;73676;43.582;22.268;2024-03-23T05:10:29;26.80;;;14.60;;
83694;SDS011;73676;43.582;22.268;2024-03-23T05:12:55;22.42;;;14.15;;
83694;SDS011;73676;43.582;22.268;2024-03-23T05:15:21;21.90;;;12.48;;
83694;SDS011;73676;43.582;22.268;2024-03-23T05:17:46;22.67;;;13.98;;
83694;SDS011;73676;43.582;22.268;2024-03-23T05:20:11;28.35;;;16.63;;
83694;SDS011;73676;43.582;22.268;2024-03-23T05:22:37;27.92;;;15.10;;
83694;SDS011;73676;43.582;22.268;2024-03-23T05:25:03;26.75;;;16.25;;
83694;SDS011;73676;43.582;22.268;2024-03-23T05:27:31;33.17;;;17.90;;
83694;SDS011;73676;43.582;22.268;2024-03-23T05:29:56;31.20;;;17.60;;
83694;SDS011;73676;43.582;22.268;2024-03-23T05:32:22;33.50;;;17.73;;
83694;SDS011;73676;43.582;22.268;2024-03-23T05:34:47;34.42;;;17.95;;
83694;SDS011;73676;43.582;22.268;2024-03-23T05:37:12;33.17;;;19.42;;
83694;SDS011;73676;43.582;22.268;2024-03-23T05:39:38;30.30;;;17.65;;
83694;SDS011;73676;43.582;22.268;2024-03-23T05:42:03;38.08;;;19.70;;
83694;SDS011;73676;43.582;22.268;2024-03-23T05:44:28;39.75;;;21.88;;
83694;SDS011;73676;43.582;22.268;2024-03-23T05:46:56;36.22;;;20.15;;
83694;SDS011;73676;43.582;22.268;2024-03-23T05:49:21;36.92;;;21.35;;
83694;SDS011;73676;43.582;22.268;2024-03-23T05:51:47;34.97;;;18.45;;
83694;SDS011;73676;43.582;22.268;2024-03-23T05:54:12;36.33;;;20.08;;
83694;SDS011;73676;43.582;22.268;2024-03-23T05:56:37;32.35;;;17.42;;
83694;SDS011;73676;43.582;22.268;2024-03-23T05:59:02;26.95;;;17.45;;
83694;SDS011;73676;43.582;22.268;2024-03-23T06:01:28;29.23;;;18.52;;
83694;SDS011;73676;43.582;22.268;2024-03-23T06:03:54;30.90;;;18.75;;
83694;SDS011;73676;43.582;22.268;2024-03-23T06:06:19;33.85;;;20.20;;
83694;SDS011;73676;43.582;22.268;2024-03-23T06:08:44;37.97;;;22.50;;
83694;SDS011;73676;43.582;22.268;2024-03-23T06:11:10;34.70;;;20.30;;
83694;SDS011;73676;43.582;22.268;2024-03-23T06:13:35;34.22;;;19.92;;
83694;SDS011;73676;43.582;22.268;2024-03-23T06:16:01;32.40;;;19.05;;
83694;SDS011;73676;43.582;22.268;2024-03-23T06:18:26;32.75;;;18.92;;
83694;SDS011;73676;43.582;22.268;2024-03-23T06:20:51;30.60;;;17.02;;
83694;SDS011;73676;43.582;22.268;2024-03-23T06:23:17;40.13;;;20.27;;
83694;SDS011;73676;43.582;22.268;2024-03-23T06:25:45;75.93;;;41.65;;
83694;SDS011;73676;43.582;22.268;2024-03-23T06:28:10;59.53;;;35.03;;
83694;SDS011;73676;43.582;22.268;2024-03-23T06:30:36;153.93;;;82.05;;
83694;SDS011;73676;43.582;22.268;2024-03-23T06:33:01;35.92;;;22.30;;
83694;SDS011;73676;43.582;22.268;2024-03-23T06:35:27;35.92;;;22.05;;
83694;SDS011;73676;43.582;22.268;2024-03-23T06:37:52;48.67;;;25.55;;
83694;SDS011;73676;43.582;22.268;2024-03-23T06:40:19;46.65;;;24.83;;
83694;SDS011;73676;43.582;22.268;2024-03-23T06:42:45;125.40;;;69.57;;
83694;SDS011;73676;43.582;22.268;2024-03-23T06:45:10;232.63;;;137.88;;
83694;SDS011;73676;43.582;22.268;2024-03-23T06:47:35;138.43;;;78.25;;
83694;SDS011;73676;43.582;22.268;2024-03-23T06:50:02;55.38;;;33.30;;
83694;SDS011;73676;43.582;22.268;2024-03-23T06:52:27;79.70;;;49.15;;
83694;SDS011;73676;43.582;22.268;2024-03-23T06:54:53;70.43;;;41.08;;
83694;SDS011;73676;43.582;22.268;2024-03-23T06:57:18;60.42;;;39.53;;
83694;SDS011;73676;43.582;22.268;2024-03-23T06:59:43;47.60;;;31.77;;
83694;SDS011;73676;43.582;22.268;2024-03-23T07:02:09;52.38;;;31.85;;
83694;SDS011;73676;43.582;22.268;2024-03-23T07:04:34;42.45;;;25.80;;
83694;SDS011;73676;43.582;22.268;2024-03-23T07:07:00;32.88;;;20.10;;
83694;SDS011;73676;43.582;22.268;2024-03-23T07:09:27;39.42;;;24.45;;
83694;SDS011;73676;43.582;22.268;2024-03-23T07:11:54;29.52;;;19.23;;
83694;SDS011;73676;43.582;22.268;2024-03-23T07:14:19;20.42;;;13.63;;
83694;SDS011;73676;43.582;22.268;2024-03-23T07:16:45;31.08;;;17.20;;
83694;SDS011;73676;43.582;22.268;2024-03-23T07:19:10;28.23;;;17.55;;
83694;SDS011;73676;43.582;22.268;2024-03-23T07:21:35;16.95;;;10.25;;
83694;SDS011;73676;43.582;22.268;2024-03-23T07:24:02;13.55;;;9.75;;
83694;SDS011;73676;43.582;22.268;2024-03-23T07:26:27;14.20;;;9.60;;
83694;SDS011;73676;43.582;22.268;2024-03-23T07:28:53;25.13;;;17.17;;
83694;SDS011;73676;43.582;22.268;2024-03-23T07:31:19;25.02;;;17.52;;
83694;SDS011;73676;43.582;22.268;2024-03-23T07:33:45;9.63;;;7.18;;
83694;SDS011;73676;43.582;22.268;2024-03-23T07:36:11;23.98;;;17.23;;
83694;SDS011;73676;43.582;22.268;2024-03-23T07:38:36;12.35;;;8.82;;
83694;SDS011;73676;43.582;22.268;2024-03-23T07:41:15;14.85;;;7.82;;
83694;SDS011;73676;43.582;22.268;2024-03-23T07:43:44;11.48;;;8.18;;
83694;SDS011;73676;43.582;22.268;2024-03-23T07:46:09;21.27;;;12.65;;
83694;SDS011;73676;43.582;22.268;2024-03-23T07:48:35;13.57;;;9.73;;
83694;SDS011;73676;43.582;22.268;2024-03-23T07:51:01;11.70;;;8.98;;
83694;SDS011;73676;43.582;22.268;2024-03-23T07:53:27;7.18;;;5.80;;
83694;SDS011;73676;43.582;22.268;2024-03-23T07:55:57;9.25;;;7.22;;
83694;SDS011;73676;43.582;22.268;2024-03-23T07:58:22;12.23;;;9.68;;
83694;SDS011;73676;43.582;22.268;2024-03-23T08:00:48;14.32;;;10.00;;
83694;SDS011;73676;43.582;22.268;2024-03-23T08:03:13;14.10;;;9.27;;
83694;SDS011;73676;43.582;22.268;2024-03-23T08:05:38;14.65;;;10.05;;
83694;SDS011;73676;43.582;22.268;2024-03-23T08:08:04;11.50;;;8.18;;
83694;SDS011;73676;43.582;22.268;2024-03-23T08:10:30;10.63;;;7.03;;
83694;SDS011;73676;43.582;22.268;2024-03-23T08:12:56;15.10;;;8.43;;
83694;SDS011;73676;43.582;22.268;2024-03-23T08:15:21;11.88;;;8.85;;
83694;SDS011;73676;43.582;22.268;2024-03-23T08:17:46;13.90;;;7.40;;
83694;SDS011;73676;43.582;22.268;2024-03-23T08:20:12;11.05;;;7.75;;
83694;SDS011;73676;43.582;22.268;2024-03-23T08:22:37;10.00;;;7.20;;
83694;SDS011;73676;43.582;22.268;2024-03-23T08:25:02;10.52;;;7.63;;
83694;SDS011;73676;43.582;22.268;2024-03-23T08:27:28;11.52;;;7.65;;
83694;SDS011;73676;43.582;22.268;2024-03-23T08:29:53;9.32;;;6.75;;
83694;SDS011;73676;43.582;22.268;2024-03-23T08:32:18;7.80;;;6.32;;
83694;SDS011;73676;43.582;22.268;2024-03-23T08:34:43;8.52;;;6.82;;
83694;SDS011;73676;43.582;22.268;2024-03-23T08:37:09;9.23;;;5.90;;
83694;SDS011;73676;43.582;22.268;2024-03-23T08:39:34;8.10;;;6.55;;
83694;SDS011;73676;43.582;22.268;2024-03-23T08:41:59;9.98;;;7.68;;
83694;SDS011;73676;43.582;22.268;2024-03-23T08:44:25;11.88;;;7.63;;
83694;SDS011;73676;43.582;22.268;2024-03-23T08:46:50;11.07;;;8.18;;
83694;SDS011;73676;43.582;22.268;2024-03-23T08:49:15;16.38;;;10.90;;
83694;SDS011;73676;43.582;22.268;2024-03-23T08:51:41;13.25;;;9.70;;
83694;SDS011;73676;43.582;22.268;2024-03-23T08:54:06;12.50;;;5.60;;
83694;SDS011;73676;43.582;22.268;2024-03-23T08:56:31;9.90;;;6.97;;
83694;SDS011;73676;43.582;22.268;2024-03-23T08:58:57;8.45;;;6.18;;
83694;SDS011;73676;43.582;22.268;2024-03-23T09:01:22;7.70;;;5.63;;
83694;SDS011;73676;43.582;22.268;2024-03-23T09:03:48;9.02;;;5.40;;
83694;SDS011;73676;43.582;22.268;2024-03-23T09:06:14;8.32;;;6.47;;
83694;SDS011;73676;43.582;22.268;2024-03-23T09:08:40;9.50;;;5.85;;
83694;SDS011;73676;43.582;22.268;2024-03-23T09:11:06;7.70;;;5.68;;
83694;SDS011;73676;43.582;22.268;2024-03-23T09:13:35;9.10;;;5.95;;
83694;SDS011;73676;43.582;22.268;2024-03-23T09:18:26;13.20;;;10.00;;
83694;SDS011;73676;43.582;22.268;2024-03-23T09:20:51;9.88;;;6.22;;
83694;SDS011;73676;43.582;22.268;2024-03-23T09:23:18;9.85;;;6.22;;
83694;SDS011;73676;43.582;22.268;2024-03-23T09:25:43;6.88;;;5.00;;
83694;SDS011;73676;43.582;22.268;2024-03-23T09:28:09;7.60;;;5.32;;
83694;SDS011;73676;43.582;22.268;2024-03-23T09:30:35;8.70;;;5.82;;
83694;SDS011;73676;43.582;22.268;2024-03-23T09:33:11;8.27;;;6.47;;
83694;SDS011;73676;43.582;22.268;2024-03-23T09:35:40;9.73;;;6.72;;
83694;SDS011;73676;43.582;22.268;2024-03-23T09:38:06;12.82;;;8.95;;
83694;SDS011;73676;43.582;22.268;2024-03-23T09:40:41;16.15;;;11.70;;
83694;SDS011;73676;43.582;22.268;2024-03-23T09:43:09;10.00;;;7.78;;
83694;SDS011;73676;43.582;22.268;2024-03-23T09:45:41;62.67;;;39.25;;
83694;SDS011;73676;43.582;22.268;2024-03-23T09:48:10;11.68;;;6.97;;
83694;SDS011;73676;43.582;22.268;2024-03-23T09:50:38;8.02;;;5.60;;
83694;SDS011;73676;43.582;22.268;2024-03-23T09:53:04;16.70;;;6.30;;
83694;SDS011;73676;43.582;22.268;2024-03-23T09:55:31;12.25;;;8.07;;
83694;SDS011;73676;43.582;22.268;2024-03-23T09:57:56;6.95;;;5.32;;
83694;SDS011;73676;43.582;22.268;2024-03-23T10:00:22;8.00;;;5.68;;
83694;SDS011;73676;43.582;22.268;2024-03-23T10:02:49;10.43;;;7.55;;
83694;SDS011;73676;43.582;22.268;2024-03-23T10:05:21;8.23;;;5.60;;
83694;SDS011;73676;43.582;22.268;2024-03-23T10:07:48;12.25;;;5.80;;
83694;SDS011;73676;43.582;22.268;2024-03-23T10:10:14;10.23;;;7.68;;
83694;SDS011;73676;43.582;22.268;2024-03-23T10:12:43;7.70;;;5.95;;
83694;SDS011;73676;43.582;22.268;2024-03-23T10:15:23;22.73;;;13.52;;
83694;SDS011;73676;43.582;22.268;2024-03-23T10:17:49;5.20;;;3.95;;
83694;SDS011;73676;43.582;22.268;2024-03-23T10:20:21;12.02;;;7.55;;
83694;SDS011;73676;43.582;22.268;2024-03-23T10:22:47;13.80;;;11.77;;
83694;SDS011;73676;43.582;22.268;2024-03-23T10:25:13;5.28;;;3.45;;
83694;SDS011;73676;43.582;22.268;2024-03-23T10:27:40;8.57;;;4.60;;
83694;SDS011;73676;43.582;22.268;2024-03-23T10:30:23;8.88;;;3.67;;
83694;SDS011;73676;43.582;22.268;2024-03-23T10:32:52;15.18;;;6.07;;
83694;SDS011;73676;43.582;22.268;2024-03-23T10:35:21;8.00;;;5.00;;
83694;SDS011;73676;43.582;22.268;2024-03-23T10:37:47;10.02;;;5.60;;
83694;SDS011;73676;43.582;22.268;2024-03-23T10:40:14;12.35;;;7.18;;
83694;SDS011;73676;43.582;22.268;2024-03-23T10:42:40;5.75;;;3.95;;
83694;SDS011;73676;43.582;22.268;2024-03-23T10:45:05;5.07;;;4.13;;
83694;SDS011;73676;43.582;22.268;2024-03-23T10:47:33;9.80;;;6.13;;
83694;SDS011;73676;43.582;22.268;2024-03-23T10:49:59;5.75;;;4.05;;
83694;SDS011;73676;43.582;22.268;2024-03-23T10:52:25;20.23;;;11.57;;
83694;SDS011;73676;43.582;22.268;2024-03-23T10:54:51;10.82;;;5.35;;
83694;SDS011;73676;43.582;22.268;2024-03-23T10:57:21;13.48;;;6.57;;
83694;SDS011;73676;43.582;22.268;2024-03-23T10:59:48;10.80;;;8.98;;
83694;SDS011;73676;43.582;22.268;2024-03-23T11:02:19;27.23;;;23.13;;
83694;SDS011;73676;43.582;22.268;2024-03-23T11:04:44;7.22;;;4.50;;
83694;SDS011;73676;43.582;22.268;2024-03-23T11:09:50;6.97;;;4.20;;
83694;SDS011;73676;43.582;22.268;2024-03-23T11:12:18;4.25;;;3.45;;
83694;SDS011;73676;43.582;22.268;2024-03-23T11:17:21;4.85;;;3.65;;
83694;SDS011;73676;43.582;22.268;2024-03-23T11:22:43;5.28;;;3.92;;
83694;SDS011;73676;43.582;22.268;2024-03-23T11:25:19;5.97;;;4.05;;
83694;SDS011;73676;43.582;22.268;2024-03-23T11:27:48;5.07;;;4.43;;
83694;SDS011;73676;43.582;22.268;2024-03-23T11:30:18;5.43;;;4.53;;
83694;SDS011;73676;43.582;22.268;2024-03-23T11:32:44;4.90;;;3.58;;
83694;SDS011;73676;43.582;22.268;2024-03-23T11:35:10;4.05;;;3.30;;
83694;SDS011;73676;43.582;22.268;2024-03-23T11:37:36;7.50;;;4.70;;
83694;SDS011;73676;43.582;22.268;2024-03-23T11:40:18;10.98;;;5.95;;
83694;SDS011;73676;43.582;22.268;2024-03-23T11:42:44;6.68;;;4.20;;
83694;SDS011;73676;43.582;22.268;2024-03-23T11:45:09;4.80;;;4.05;;
83694;SDS011;73676;43.582;22.268;2024-03-23T11:47:35;7.03;;;3.80;;
83694;SDS011;73676;43.582;22.268;2024-03-23T11:50:00;6.75;;;5.13;;
83694;SDS011;73676;43.582;22.268;2024-03-23T11:52:26;7.13;;;5.25;;
83694;SDS011;73676;43.582;22.268;2024-03-23T11:54:51;12.20;;;6.65;;
83694;SDS011;73676;43.582;22.268;2024-03-23T11:57:27;6.55;;;4.30;;
83694;SDS011;73676;43.582;22.268;2024-03-23T11:59:53;5.07;;;3.92;;
83694;SDS011;73676;43.582;22.268;2024-03-23T12:02:18;5.15;;;3.20;;
83694;SDS011;73676;43.582;22.268;2024-03-23T12:04:43;7.75;;;4.03;;
83694;SDS011;73676;43.582;22.268;2024-03-23T12:07:09;5.35;;;3.90;;
83694;SDS011;73676;43.582;22.268;2024-03-23T12:09:35;8.68;;;4.15;;
83694;SDS011;73676;43.582;22.268;2024-03-23T12:14:32;8.18;;;4.90;;
83694;SDS011;73676;43.582;22.268;2024-03-23T12:17:06;4.53;;;3.85;;
83694;SDS011;73676;43.582;22.268;2024-03-23T12:19:32;23.30;;;13.95;;
83694;SDS011;73676;43.582;22.268;2024-03-23T12:21:58;5.10;;;3.92;;
83694;SDS011;73676;43.582;22.268;2024-03-23T12:24:23;9.15;;;5.28;;
83694;SDS011;73676;43.582;22.268;2024-03-23T12:26:49;4.60;;;3.25;;
83694;SDS011;73676;43.582;22.268;2024-03-23T12:29:15;4.63;;;3.10;;
83694;SDS011;73676;43.582;22.268;2024-03-23T12:31:40;5.53;;;3.67;;
83694;SDS011;73676;43.582;22.268;2024-03-23T12:34:06;9.63;;;6.70;;
83694;SDS011;73676;43.582;22.268;2024-03-23T12:36:32;10.45;;;5.72;;
83694;SDS011;73676;43.582;22.268;2024-03-23T12:38:59;21.08;;;11.45;;
83694;SDS011;73676;43.582;22.268;2024-03-23T12:41:25;4.50;;;3.55;;
83694;SDS011;73676;43.582;22.268;2024-03-23T12:43:50;7.65;;;4.72;;
83694;SDS011;73676;43.582;22.268;2024-03-23T12:46:16;12.27;;;5.05;;
83694;SDS011;73676;43.582;22.268;2024-03-23T12:48:41;3.53;;;3.22;;
83694;SDS011;73676;43.582;22.268;2024-03-23T12:51:09;10.10;;;4.75;;
83694;SDS011;73676;43.582;22.268;2024-03-23T12:53:34;8.60;;;5.47;;
83694;SDS011;73676;43.582;22.268;2024-03-23T12:56:00;7.85;;;4.70;;
83694;SDS011;73676;43.582;22.268;2024-03-23T12:58:25;4.40;;;3.00;;
83694;SDS011;73676;43.582;22.268;2024-03-23T13:00:50;6.75;;;4.50;;
83694;SDS011;73676;43.582;22.268;2024-03-23T13:03:16;8.45;;;4.43;;
83694;SDS011;73676;43.582;22.268;2024-03-23T13:05:41;9.40;;;6.13;;
83694;SDS011;73676;43.582;22.268;2024-03-23T13:08:06;7.45;;;4.50;;
83694;SDS011;73676;43.582;22.268;2024-03-23T13:10:32;7.05;;;5.53;;
83694;SDS011;73676;43.582;22.268;2024-03-23T13:12:59;6.88;;;3.35;;
83694;SDS011;73676;43.582;22.268;2024-03-23T13:15:24;5.35;;;3.20;;
83694;SDS011;73676;43.582;22.268;2024-03-23T13:17:49;6.70;;;4.95;;
83694;SDS011;73676;43.582;22.268;2024-03-23T13:20:15;4.38;;;3.90;;
83694;SDS011;73676;43.582;22.268;2024-03-23T13:22:41;5.32;;;3.55;;
83694;SDS011;73676;43.582;22.268;2024-03-23T13:25:08;4.53;;;3.33;;
83694;SDS011;73676;43.582;22.268;2024-03-23T13:27:33;3.40;;;3.08;;
83694;SDS011;73676;43.582;22.268;2024-03-23T13:29:58;5.30;;;4.38;;
83694;SDS011;73676;43.582;22.268;2024-03-23T13:32:24;5.68;;;3.78;;
83694;SDS011;73676;43.582;22.268;2024-03-23T13:35:05;4.93;;;3.70;;
83694;SDS011;73676;43.582;22.268;2024-03-23T13:37:31;6.32;;;4.53;;
83694;SDS011;73676;43.582;22.268;2024-03-23T13:39:57;13.02;;;5.63;;
83694;SDS011;73676;43.582;22.268;2024-03-23T13:42:22;5.05;;;3.50;;
83694;SDS011;73676;43.582;22.268;2024-03-23T13:47:18;5.00;;;4.20;;
83694;SDS011;73676;43.582;22.268;2024-03-23T13:49:44;3.70;;;3.03;;
83694;SDS011;73676;43.582;22.268;2024-03-23T13:52:09;6.68;;;4.75;;
83694;SDS011;73676;43.582;22.268;2024-03-23T13:54:34;5.82;;;3.92;;
83694;SDS011;73676;43.582;22.268;2024-03-23T13:57:00;4.22;;;3.45;;
83694;SDS011;73676;43.582;22.268;2024-03-23T13:59:25;5.95;;;3.33;;
83694;SDS011;73676;43.582;22.268;2024-03-23T14:01:51;4.32;;;2.80;;
83694;SDS011;73676;43.582;22.268;2024-03-23T14:04:16;3.72;;;2.88;;
83694;SDS011;73676;43.582;22.268;2024-03-23T14:06:42;6.32;;;2.92;;
83694;SDS011;73676;43.582;22.268;2024-03-23T14:09:11;6.07;;;3.58;;
83694;SDS011;73676;43.582;22.268;2024-03-23T14:11:37;5.75;;;3.42;;
83694;SDS011;73676;43.582;22.268;2024-03-23T14:14:02;5.45;;;3.63;;
83694;SDS011;73676;43.582;22.268;2024-03-23T14:16:28;4.30;;;3.15;;
83694;SDS011;73676;43.582;22.268;2024-03-23T14:18:54;5.68;;;3.42;;
83694;SDS011;73676;43.582;22.268;2024-03-23T14:21:19;7.05;;;5.43;;
83694;SDS011;73676;43.582;22.268;2024-03-23T14:23:44;7.22;;;4.15;;
83694;SDS011;73676;43.582;22.268;2024-03-23T14:26:10;4.05;;;3.65;;
83694;SDS011;73676;43.582;22.268;2024-03-23T14:28:36;5.13;;;3.90;;
83694;SDS011;73676;43.582;22.268;2024-03-23T14:31:02;4.43;;;3.10;;
83694;SDS011;73676;43.582;22.268;2024-03-23T14:33:32;7.60;;;3.53;;
83694;SDS011;73676;43.582;22.268;2024-03-23T14:35:59;5.85;;;3.60;;
83694;SDS011;73676;43.582;22.268;2024-03-23T14:38:24;6.00;;;4.10;;
83694;SDS011;73676;43.582;22.268;2024-03-23T14:40:50;5.40;;;4.00;;
83694;SDS011;73676;43.582;22.268;2024-03-23T14:43:17;4.88;;;3.50;;
83694;SDS011;73676;43.582;22.268;2024-03-23T14:48:28;5.05;;;4.07;;
83694;SDS011;73676;43.582;22.268;2024-03-23T14:50:57;5.35;;;3.45;;
83694;SDS011;73676;43.582;22.268;2024-03-23T14:55:47;9.27;;;5.47;;
83694;SDS011;73676;43.582;22.268;2024-03-23T14:58:14;8.02;;;5.50;;
83694;SDS011;73676;43.582;22.268;2024-03-23T15:00:39;7.03;;;6.32;;
83694;SDS011;73676;43.582;22.268;2024-03-23T15:03:05;9.18;;;7.20;;
83694;SDS011;73676;43.582;22.268;2024-03-23T15:05:31;7.45;;;5.55;;
83694;SDS011;73676;43.582;22.268;2024-03-23T15:07:58;9.73;;;6.50;;
83694;SDS011;73676;43.582;22.268;2024-03-23T15:10:24;6.75;;;5.82;;
83694;SDS011;73676;43.582;22.268;2024-03-23T15:12:49;5.65;;;4.28;;
83694;SDS011;73676;43.582;22.268;2024-03-23T15:15:17;7.90;;;6.47;;
83694;SDS011;73676;43.582;22.268;2024-03-23T15:17:42;7.55;;;6.10;;
83694;SDS011;73676;43.582;22.268;2024-03-23T15:20:09;5.65;;;3.30;;
83694;SDS011;73676;43.582;22.268;2024-03-23T15:22:37;6.13;;;4.40;;
83694;SDS011;73676;43.582;22.268;2024-03-23T15:25:03;8.60;;;5.45;;
83694;SDS011;73676;43.582;22.268;2024-03-23T15:27:29;12.40;;;9.13;;